Motocross, GP Lettonia 2016, Qualifying Race: ancora Cairoli 2° dietro Gajser. Quinto Febvre

Tim-Gajser-Libera.jpg

Come due settimane fa in Messico: Gajser primo, Cairoli secondo e Febvre quinto, in qualifica. Speriamo cambi però l’ordine d’arrivo domenicale…

Partenza fulminante per il nostro pilota, il più bravo di tutti all’abbassamento dei cancelletti; il messinese conduce le danze per gran parte dei dodici giri previsti dalla qualifica ufficiale. Incollato a lui fin dalle battute iniziali, il solito “rookie terribile” (già una garanzia, anche in MXGP) Tim Gajser.

Lo sloveno sferra l’attacco decisivo a due giri dal termine: la leadership del sabato è sua, secondo un pur bravo Tony Cairoli, chiamato a riscattarsi dopo le opache prove in gara in quel di Leon, tredici giorni or sono. Terzo posto per un sorprendente Jeremy Van Horebeek.

Anche il belga supera il connazionale Kevin Strijbos alla penultima tornata, dopo un reiterato duello. Solo quinto l’attuale capoclassifica – nonché Campione del Mondo in carica – Romain Febvre, penalizzato da uno start tutt’altro che eccellente.

 

RISULTATI DELLA QUALIFYING RACE DEL ROUND LETTONIA 2016

MXGP – Qualifying Race – Classification
Pos Nr Rider Nat. Fed. Bike Time laps Diff. First Diff. Prev. Bestlaptime in lap Speed
1 243 Gajser, Tim SLO AMZS Honda 24:20.229 12 0:00.000 0:00.000 1:53.539 7 48.8
2 222 Cairoli, Antonio ITA FMI KTM 24:21.862 12 0:01.633 0:01.633 1:53.453 5 48.8
3 89 Van Horebeek, Jeremy BEL FMB Yamaha 24:24.375 12 0:04.146 0:02.513 1:53.405 2 48.8
4 22 Strijbos, Kevin BEL FMB Suzuki 24:25.531 12 0:05.302 0:01.156 1:53.232 1 48.9
5 461 Febvre, Romain FRA FFM Yamaha 24:31.508 12 0:11.279 0:05.977 1:53.184 4 48.9
6 12 Nagl, Maximilian GER DMSB Husqvarna 24:40.250 12 0:20.021 0:08.742 1:52.406 5 49.3
7 8 Townley, Ben NZL MNZ Suzuki 24:54.736 12 0:34.507 0:14.486 1:54.279 2 48.5
8 24 Simpson, Shaun GBR ACU KTM 24:55.954 12 0:35.725 0:01.218 1:55.217 2 48.1
9 25 Desalle, Clement BEL FMB Kawasaki 24:56.731 12 0:36.502 0:00.777 1:55.534 3 47.9
10 259 Coldenhoff, Glenn NED KNMV KTM 25:00.568 12 0:40.339 0:03.837 1:55.479 3 48
11 23 Charlier, Christophe FRA FFM Husqvarna 25:03.350 12 0:43.121 0:02.782 1:55.630 4 47.9
12 92 Guillod, Valentin SUI FMS Yamaha 25:10.576 12 0:50.347 0:07.226 1:55.961 6 47.8
13 32 Potisek, Milko FRA FFM Yamaha 25:24.625 12 1:04.396 0:14.049 1:56.915 2 47.4
14 45 Nicholls, Jake GBR ACU Husqvarna 25:28.722 12 1:08.493 0:04.097 1:57.168 5 47.3
15 685 Lenoir, Steven FRA FFM Honda 25:35.866 12 1:15.637 0:07.144 1:58.314 3 46.8
16 17 Butron, Jose ESP RFME KTM 25:39.457 12 1:19.228 0:03.591 1:59.137 7 46.5
17 999 Goncalves, Rui POR FMP Husqvarna 25:41.074 12 1:20.845 0:01.617 1:59.292 7 46.4
18 600 Ivanovs, Davis LAT LAMSF Yamaha 25:42.533 12 1:22.304 0:01.459 1:59.184 2 46.5
19 151 Kullas, Harri EST EMF KTM 25:43.903 12 1:23.674 0:01.370 1:59.601 10 46.3
20 50 Macuks, Toms LAT LAMSF Kawasaki 25:45.243 12 1:25.014 0:01.340 1:59.271 6 46.4
21 920 Valentin, Ander ESP RFME Kawasaki 25:46.011 12 1:25.782 0:00.768 1:57.730 2 47
22 11 Bengtsson, Filip SWE SVEMO Suzuki 25:49.270 12 1:29.041 0:03.259 1:55.646 2 47.9
23 7 Leok, Tanel EST EMF KTM 25:50.308 12 1:30.079 0:01.038 1:56.616 2 47.5
24 100 Searle, Tommy GBR ACU Kawasaki 25:51.898 12 1:31.669 0:01.590 1:55.634 5 47.9
25 400 Yamamoto, Kei JPN FMI Honda 25:53.194 12 1:32.965 0:01.296 1:59.407 2 46.4
26 430 Malin, Valtteri FIN SML KTM 25:53.914 12 1:33.685 0:00.720 2:00.047 3 46.1
27 156 Heidecke, Angus GER DMSB KTM 26:00.785 12 1:40.556 0:06.871 2:00.462 8 46
28 149 Ullrich, Dennis GER DMSB KTM 26:01.233 12 1:41.004 0:00.448 2:00.137 11 46.1
29 621 Lusbo, Andero EST EMF Yamaha 26:11.771 12 1:51.542 0:10.538 2:00.607 4 45.9
30 177 Jasikonis, Arminas LTU DMSB Kawasaki 26:30.470 12 2:10.241 0:18.699 1:58.836 1 46.6
31 300 Golovkin, Viacheslav RUS MFR KTM 24:22.910 11 1 lap 1 lap 2:01.860 2 45.4
32 31 Snow, Alex GBR ACU Yamaha 24:35.649 11 1 lap 0:12.739 2:01.523 4 45.6
33 63 Klein Kromhof, Ceriel NED KNMV Honda 7:35.655 3 9 laps 8 laps 1:58.856 3 46.6
34 777 Bobryshev, Evgeny RUS MUL Honda 0:00.000 -1 13 laps 4 laps 0:00.000 0

Clicca qui per mettere “Mi piace” alla nostra pagina Facebook
Clicca qui per iscriverti al nostro gruppo
Clicca qui per seguirci su Twitter

Immagine: fonte libera Tim Gajser

giuseppe.urbano@oasport.it

Lascia un commento

Top